sensor_id;sensor_type;location;lat;lon;timestamp;P1;durP1;ratioP1;P2;durP2;ratioP2
4980;SDS011;2507;50.392;7.482;2024-01-15T00:00:32;10.30;;;7.47;;
4980;SDS011;2507;50.392;7.482;2024-01-15T00:02:57;14.30;;;8.10;;
4980;SDS011;2507;50.392;7.482;2024-01-15T00:05:23;8.80;;;6.83;;
4980;SDS011;2507;50.392;7.482;2024-01-15T00:07:48;10.73;;;7.97;;
4980;SDS011;2507;50.392;7.482;2024-01-15T00:10:13;12.53;;;7.43;;
4980;SDS011;2507;50.392;7.482;2024-01-15T00:12:39;10.87;;;7.13;;
4980;SDS011;2507;50.392;7.482;2024-01-15T00:15:04;13.20;;;7.00;;
4980;SDS011;2507;50.392;7.482;2024-01-15T00:17:30;12.83;;;7.77;;
4980;SDS011;2507;50.392;7.482;2024-01-15T00:19:55;12.40;;;8.10;;
4980;SDS011;2507;50.392;7.482;2024-01-15T00:22:20;15.60;;;9.13;;
4980;SDS011;2507;50.392;7.482;2024-01-15T00:24:45;14.43;;;8.43;;
4980;SDS011;2507;50.392;7.482;2024-01-15T00:27:11;16.70;;;10.20;;
4980;SDS011;2507;50.392;7.482;2024-01-15T00:29:36;19.37;;;10.37;;
4980;SDS011;2507;50.392;7.482;2024-01-15T00:32:01;16.33;;;9.43;;
4980;SDS011;2507;50.392;7.482;2024-01-15T00:34:26;18.53;;;9.70;;
4980;SDS011;2507;50.392;7.482;2024-01-15T00:36:52;18.30;;;9.60;;
4980;SDS011;2507;50.392;7.482;2024-01-15T00:39:17;20.50;;;10.77;;
4980;SDS011;2507;50.392;7.482;2024-01-15T00:41:42;18.27;;;9.87;;
4980;SDS011;2507;50.392;7.482;2024-01-15T00:44:08;18.50;;;10.00;;
4980;SDS011;2507;50.392;7.482;2024-01-15T00:46:33;16.20;;;9.40;;
4980;SDS011;2507;50.392;7.482;2024-01-15T00:48:58;18.90;;;9.70;;
4980;SDS011;2507;50.392;7.482;2024-01-15T00:51:23;19.33;;;9.90;;
4980;SDS011;2507;50.392;7.482;2024-01-15T00:53:49;18.13;;;10.27;;
4980;SDS011;2507;50.392;7.482;2024-01-15T00:56:14;22.30;;;9.97;;
4980;SDS011;2507;50.392;7.482;2024-01-15T00:58:39;19.33;;;9.60;;
4980;SDS011;2507;50.392;7.482;2024-01-15T01:01:04;17.00;;;9.23;;
4980;SDS011;2507;50.392;7.482;2024-01-15T01:03:30;17.60;;;10.27;;
4980;SDS011;2507;50.392;7.482;2024-01-15T01:05:55;23.33;;;11.37;;
4980;SDS011;2507;50.392;7.482;2024-01-15T01:08:20;22.80;;;10.87;;
4980;SDS011;2507;50.392;7.482;2024-01-15T01:10:45;21.13;;;10.90;;
4980;SDS011;2507;50.392;7.482;2024-01-15T01:13:11;18.40;;;9.93;;
4980;SDS011;2507;50.392;7.482;2024-01-15T01:15:36;21.70;;;10.03;;
4980;SDS011;2507;50.392;7.482;2024-01-15T01:18:02;18.00;;;10.47;;
4980;SDS011;2507;50.392;7.482;2024-01-15T01:20:28;20.57;;;11.03;;
4980;SDS011;2507;50.392;7.482;2024-01-15T01:22:53;20.23;;;11.23;;
4980;SDS011;2507;50.392;7.482;2024-01-15T01:25:18;20.27;;;10.43;;
4980;SDS011;2507;50.392;7.482;2024-01-15T01:27:44;22.03;;;11.57;;
4980;SDS011;2507;50.392;7.482;2024-01-15T01:30:09;19.90;;;10.00;;
4980;SDS011;2507;50.392;7.482;2024-01-15T01:32:34;19.40;;;11.00;;
4980;SDS011;2507;50.392;7.482;2024-01-15T01:35:00;23.93;;;11.57;;
4980;SDS011;2507;50.392;7.482;2024-01-15T01:37:25;17.90;;;9.83;;
4980;SDS011;2507;50.392;7.482;2024-01-15T01:39:51;24.20;;;10.77;;
4980;SDS011;2507;50.392;7.482;2024-01-15T01:42:16;19.03;;;10.47;;
4980;SDS011;2507;50.392;7.482;2024-01-15T01:44:41;15.87;;;9.80;;
4980;SDS011;2507;50.392;7.482;2024-01-15T01:47:06;20.37;;;10.33;;
4980;SDS011;2507;50.392;7.482;2024-01-15T01:49:32;17.10;;;9.57;;
4980;SDS011;2507;50.392;7.482;2024-01-15T01:52:00;17.40;;;10.27;;
4980;SDS011;2507;50.392;7.482;2024-01-15T01:54:29;17.70;;;10.70;;
4980;SDS011;2507;50.392;7.482;2024-01-15T01:56:57;19.10;;;10.53;;
4980;SDS011;2507;50.392;7.482;2024-01-15T01:59:23;14.47;;;8.90;;
4980;SDS011;2507;50.392;7.482;2024-01-15T02:01:50;18.53;;;10.37;;
4980;SDS011;2507;50.392;7.482;2024-01-15T02:04:16;19.33;;;10.10;;
4980;SDS011;2507;50.392;7.482;2024-01-15T02:06:42;18.63;;;9.50;;
4980;SDS011;2507;50.392;7.482;2024-01-15T02:09:07;17.50;;;10.20;;
4980;SDS011;2507;50.392;7.482;2024-01-15T02:11:33;15.63;;;9.57;;
4980;SDS011;2507;50.392;7.482;2024-01-15T02:13:58;17.67;;;9.87;;
4980;SDS011;2507;50.392;7.482;2024-01-15T02:16:24;18.53;;;9.60;;
4980;SDS011;2507;50.392;7.482;2024-01-15T02:18:49;16.23;;;9.10;;
4980;SDS011;2507;50.392;7.482;2024-01-15T02:21:15;21.43;;;11.10;;
4980;SDS011;2507;50.392;7.482;2024-01-15T02:23:40;16.23;;;10.07;;
4980;SDS011;2507;50.392;7.482;2024-01-15T02:26:06;17.03;;;10.13;;
4980;SDS011;2507;50.392;7.482;2024-01-15T02:28:32;15.60;;;8.80;;
4980;SDS011;2507;50.392;7.482;2024-01-15T02:30:58;17.17;;;9.40;;
4980;SDS011;2507;50.392;7.482;2024-01-15T02:33:23;20.60;;;10.67;;
4980;SDS011;2507;50.392;7.482;2024-01-15T02:35:48;20.93;;;10.30;;
4980;SDS011;2507;50.392;7.482;2024-01-15T02:38:16;17.87;;;10.23;;
4980;SDS011;2507;50.392;7.482;2024-01-15T02:40:43;16.17;;;9.60;;
4980;SDS011;2507;50.392;7.482;2024-01-15T02:43:08;17.57;;;10.20;;
4980;SDS011;2507;50.392;7.482;2024-01-15T02:45:34;14.60;;;8.70;;
4980;SDS011;2507;50.392;7.482;2024-01-15T02:47:59;13.40;;;8.80;;
4980;SDS011;2507;50.392;7.482;2024-01-15T02:50:24;18.90;;;10.43;;
4980;SDS011;2507;50.392;7.482;2024-01-15T02:52:50;14.70;;;9.10;;
4980;SDS011;2507;50.392;7.482;2024-01-15T02:55:15;22.87;;;10.80;;
4980;SDS011;2507;50.392;7.482;2024-01-15T02:57:40;15.07;;;9.70;;
4980;SDS011;2507;50.392;7.482;2024-01-15T03:00:06;19.40;;;10.40;;
4980;SDS011;2507;50.392;7.482;2024-01-15T03:02:32;19.67;;;10.23;;
4980;SDS011;2507;50.392;7.482;2024-01-15T03:04:57;21.90;;;9.97;;
4980;SDS011;2507;50.392;7.482;2024-01-15T03:07:23;18.47;;;10.70;;
4980;SDS011;2507;50.392;7.482;2024-01-15T03:09:48;19.90;;;10.47;;
4980;SDS011;2507;50.392;7.482;2024-01-15T03:12:13;16.70;;;9.80;;
4980;SDS011;2507;50.392;7.482;2024-01-15T03:14:38;21.50;;;10.47;;
4980;SDS011;2507;50.392;7.482;2024-01-15T03:17:04;19.17;;;11.17;;
4980;SDS011;2507;50.392;7.482;2024-01-15T03:19:29;20.43;;;10.20;;
4980;SDS011;2507;50.392;7.482;2024-01-15T03:21:55;16.00;;;9.70;;
4980;SDS011;2507;50.392;7.482;2024-01-15T03:24:21;17.27;;;10.07;;
4980;SDS011;2507;50.392;7.482;2024-01-15T03:26:46;22.17;;;10.90;;
4980;SDS011;2507;50.392;7.482;2024-01-15T03:29:11;18.97;;;10.20;;
4980;SDS011;2507;50.392;7.482;2024-01-15T03:31:37;22.03;;;11.10;;
4980;SDS011;2507;50.392;7.482;2024-01-15T03:34:02;21.50;;;11.33;;
4980;SDS011;2507;50.392;7.482;2024-01-15T03:36:28;18.17;;;10.17;;
4980;SDS011;2507;50.392;7.482;2024-01-15T03:38:53;18.07;;;9.53;;
4980;SDS011;2507;50.392;7.482;2024-01-15T03:41:19;23.57;;;11.40;;
4980;SDS011;2507;50.392;7.482;2024-01-15T03:43:44;21.50;;;11.40;;
4980;SDS011;2507;50.392;7.482;2024-01-15T03:46:09;20.63;;;10.23;;
4980;SDS011;2507;50.392;7.482;2024-01-15T03:48:34;19.40;;;11.07;;
4980;SDS011;2507;50.392;7.482;2024-01-15T03:51:00;14.93;;;10.63;;
4980;SDS011;2507;50.392;7.482;2024-01-15T03:53:25;19.70;;;10.00;;
4980;SDS011;2507;50.392;7.482;2024-01-15T03:55:50;17.33;;;10.07;;
4980;SDS011;2507;50.392;7.482;2024-01-15T03:58:16;18.00;;;10.10;;
4980;SDS011;2507;50.392;7.482;2024-01-15T04:00:41;18.83;;;9.97;;
4980;SDS011;2507;50.392;7.482;2024-01-15T04:03:07;14.30;;;9.00;;
4980;SDS011;2507;50.392;7.482;2024-01-15T04:05:32;19.20;;;10.40;;
4980;SDS011;2507;50.392;7.482;2024-01-15T04:07:58;20.47;;;11.10;;
4980;SDS011;2507;50.392;7.482;2024-01-15T04:10:23;19.60;;;9.90;;
4980;SDS011;2507;50.392;7.482;2024-01-15T04:12:48;22.47;;;10.90;;
4980;SDS011;2507;50.392;7.482;2024-01-15T04:15:13;19.57;;;10.37;;
4980;SDS011;2507;50.392;7.482;2024-01-15T04:17:39;20.30;;;10.63;;
4980;SDS011;2507;50.392;7.482;2024-01-15T04:20:04;14.20;;;8.97;;
4980;SDS011;2507;50.392;7.482;2024-01-15T04:22:30;20.73;;;10.67;;
4980;SDS011;2507;50.392;7.482;2024-01-15T04:24:55;18.53;;;9.80;;
4980;SDS011;2507;50.392;7.482;2024-01-15T04:27:21;19.13;;;10.10;;
4980;SDS011;2507;50.392;7.482;2024-01-15T04:29:46;16.10;;;9.80;;
4980;SDS011;2507;50.392;7.482;2024-01-15T04:32:11;20.20;;;10.50;;
4980;SDS011;2507;50.392;7.482;2024-01-15T04:34:36;21.93;;;10.80;;
4980;SDS011;2507;50.392;7.482;2024-01-15T04:37:02;19.70;;;10.80;;
4980;SDS011;2507;50.392;7.482;2024-01-15T04:39:27;17.27;;;10.37;;
4980;SDS011;2507;50.392;7.482;2024-01-15T04:41:53;20.53;;;10.67;;
4980;SDS011;2507;50.392;7.482;2024-01-15T04:44:18;17.40;;;10.87;;
4980;SDS011;2507;50.392;7.482;2024-01-15T04:46:43;18.17;;;10.23;;
4980;SDS011;2507;50.392;7.482;2024-01-15T04:49:09;18.13;;;10.23;;
4980;SDS011;2507;50.392;7.482;2024-01-15T04:51:34;19.90;;;11.13;;
4980;SDS011;2507;50.392;7.482;2024-01-15T04:54:00;21.00;;;11.20;;
4980;SDS011;2507;50.392;7.482;2024-01-15T04:56:26;17.67;;;9.43;;
4980;SDS011;2507;50.392;7.482;2024-01-15T04:58:51;16.77;;;9.90;;
4980;SDS011;2507;50.392;7.482;2024-01-15T05:01:16;20.40;;;10.53;;
4980;SDS011;2507;50.392;7.482;2024-01-15T05:03:42;16.20;;;9.80;;
4980;SDS011;2507;50.392;7.482;2024-01-15T05:06:07;16.80;;;9.73;;
4980;SDS011;2507;50.392;7.482;2024-01-15T05:08:33;15.37;;;9.33;;
4980;SDS011;2507;50.392;7.482;2024-01-15T05:10:58;20.30;;;10.30;;
4980;SDS011;2507;50.392;7.482;2024-01-15T05:13:23;26.33;;;11.10;;
4980;SDS011;2507;50.392;7.482;2024-01-15T05:15:48;16.90;;;10.80;;
4980;SDS011;2507;50.392;7.482;2024-01-15T05:18:14;21.03;;;11.20;;
4980;SDS011;2507;50.392;7.482;2024-01-15T05:20:39;21.80;;;11.40;;
4980;SDS011;2507;50.392;7.482;2024-01-15T05:23:04;20.20;;;10.83;;
4980;SDS011;2507;50.392;7.482;2024-01-15T05:25:29;16.87;;;10.50;;
4980;SDS011;2507;50.392;7.482;2024-01-15T05:27:55;20.30;;;10.73;;
4980;SDS011;2507;50.392;7.482;2024-01-15T05:30:20;20.77;;;11.70;;
4980;SDS011;2507;50.392;7.482;2024-01-15T05:32:45;19.33;;;10.53;;
4980;SDS011;2507;50.392;7.482;2024-01-15T05:35:10;22.50;;;11.57;;
4980;SDS011;2507;50.392;7.482;2024-01-15T05:37:35;16.67;;;10.30;;
4980;SDS011;2507;50.392;7.482;2024-01-15T05:40:01;24.57;;;11.43;;
4980;SDS011;2507;50.392;7.482;2024-01-15T05:42:26;19.53;;;11.60;;
4980;SDS011;2507;50.392;7.482;2024-01-15T05:44:51;33.63;;;11.33;;
4980;SDS011;2507;50.392;7.482;2024-01-15T05:47:17;23.63;;;11.90;;
4980;SDS011;2507;50.392;7.482;2024-01-15T05:49:42;24.10;;;12.03;;
4980;SDS011;2507;50.392;7.482;2024-01-15T05:52:08;18.67;;;10.90;;
4980;SDS011;2507;50.392;7.482;2024-01-15T05:54:33;18.73;;;11.00;;
4980;SDS011;2507;50.392;7.482;2024-01-15T05:56:58;22.10;;;10.60;;
4980;SDS011;2507;50.392;7.482;2024-01-15T05:59:23;18.37;;;10.57;;
4980;SDS011;2507;50.392;7.482;2024-01-15T06:01:49;20.67;;;12.40;;
4980;SDS011;2507;50.392;7.482;2024-01-15T06:04:14;18.60;;;11.10;;
4980;SDS011;2507;50.392;7.482;2024-01-15T06:06:39;21.33;;;11.07;;
4980;SDS011;2507;50.392;7.482;2024-01-15T06:09:04;22.33;;;10.97;;
4980;SDS011;2507;50.392;7.482;2024-01-15T06:11:31;19.67;;;11.40;;
4980;SDS011;2507;50.392;7.482;2024-01-15T06:13:57;21.03;;;11.30;;
4980;SDS011;2507;50.392;7.482;2024-01-15T06:16:23;22.90;;;11.93;;
4980;SDS011;2507;50.392;7.482;2024-01-15T06:18:48;22.80;;;12.53;;
4980;SDS011;2507;50.392;7.482;2024-01-15T06:21:14;26.27;;;12.23;;
4980;SDS011;2507;50.392;7.482;2024-01-15T06:23:39;23.63;;;11.83;;
4980;SDS011;2507;50.392;7.482;2024-01-15T06:26:05;26.20;;;11.67;;
4980;SDS011;2507;50.392;7.482;2024-01-15T06:28:30;21.63;;;12.00;;
4980;SDS011;2507;50.392;7.482;2024-01-15T06:30:56;19.90;;;11.23;;
4980;SDS011;2507;50.392;7.482;2024-01-15T06:33:23;22.13;;;10.90;;
4980;SDS011;2507;50.392;7.482;2024-01-15T06:35:48;17.37;;;10.03;;
4980;SDS011;2507;50.392;7.482;2024-01-15T06:38:14;24.83;;;11.00;;
4980;SDS011;2507;50.392;7.482;2024-01-15T06:40:39;20.07;;;10.60;;
4980;SDS011;2507;50.392;7.482;2024-01-15T06:43:10;18.90;;;10.50;;
4980;SDS011;2507;50.392;7.482;2024-01-15T06:45:35;20.73;;;10.07;;
4980;SDS011;2507;50.392;7.482;2024-01-15T06:48:00;20.97;;;10.53;;
4980;SDS011;2507;50.392;7.482;2024-01-15T06:50:26;18.43;;;11.60;;
4980;SDS011;2507;50.392;7.482;2024-01-15T06:52:51;19.00;;;10.13;;
4980;SDS011;2507;50.392;7.482;2024-01-15T06:55:16;23.37;;;11.97;;
4980;SDS011;2507;50.392;7.482;2024-01-15T06:57:41;17.80;;;10.37;;
4980;SDS011;2507;50.392;7.482;2024-01-15T07:00:08;22.13;;;10.67;;
4980;SDS011;2507;50.392;7.482;2024-01-15T07:02:33;22.43;;;11.43;;
4980;SDS011;2507;50.392;7.482;2024-01-15T07:04:58;26.37;;;11.93;;
4980;SDS011;2507;50.392;7.482;2024-01-15T07:07:24;20.37;;;10.83;;
4980;SDS011;2507;50.392;7.482;2024-01-15T07:09:50;22.00;;;11.33;;
4980;SDS011;2507;50.392;7.482;2024-01-15T07:12:17;20.70;;;10.30;;
4980;SDS011;2507;50.392;7.482;2024-01-15T07:14:42;21.50;;;12.47;;
4980;SDS011;2507;50.392;7.482;2024-01-15T07:17:07;20.77;;;10.77;;
4980;SDS011;2507;50.392;7.482;2024-01-15T07:19:33;19.10;;;9.77;;
4980;SDS011;2507;50.392;7.482;2024-01-15T07:21:58;20.07;;;10.80;;
4980;SDS011;2507;50.392;7.482;2024-01-15T07:24:23;20.23;;;10.80;;
4980;SDS011;2507;50.392;7.482;2024-01-15T07:26:49;16.20;;;11.10;;
4980;SDS011;2507;50.392;7.482;2024-01-15T07:29:14;18.03;;;9.97;;
4980;SDS011;2507;50.392;7.482;2024-01-15T07:31:39;21.33;;;10.60;;
4980;SDS011;2507;50.392;7.482;2024-01-15T07:34:04;18.33;;;9.80;;
4980;SDS011;2507;50.392;7.482;2024-01-15T07:36:30;17.37;;;9.60;;
4980;SDS011;2507;50.392;7.482;2024-01-15T07:38:55;19.43;;;11.33;;
4980;SDS011;2507;50.392;7.482;2024-01-15T07:41:20;20.20;;;11.20;;
4980;SDS011;2507;50.392;7.482;2024-01-15T07:43:45;18.50;;;10.67;;
4980;SDS011;2507;50.392;7.482;2024-01-15T07:46:11;20.20;;;11.13;;
4980;SDS011;2507;50.392;7.482;2024-01-15T07:48:36;19.20;;;11.90;;
4980;SDS011;2507;50.392;7.482;2024-01-15T07:51:01;22.53;;;12.60;;
4980;SDS011;2507;50.392;7.482;2024-01-15T07:53:26;23.23;;;12.27;;
4980;SDS011;2507;50.392;7.482;2024-01-15T07:55:52;22.13;;;12.20;;
4980;SDS011;2507;50.392;7.482;2024-01-15T07:58:18;23.70;;;12.40;;
4980;SDS011;2507;50.392;7.482;2024-01-15T08:00:43;20.97;;;12.17;;
4980;SDS011;2507;50.392;7.482;2024-01-15T08:03:09;22.87;;;11.60;;
4980;SDS011;2507;50.392;7.482;2024-01-15T08:05:34;20.50;;;13.03;;
4980;SDS011;2507;50.392;7.482;2024-01-15T08:07:59;24.80;;;12.47;;
4980;SDS011;2507;50.392;7.482;2024-01-15T08:10:25;25.80;;;13.40;;
4980;SDS011;2507;50.392;7.482;2024-01-15T08:12:50;20.17;;;12.10;;
4980;SDS011;2507;50.392;7.482;2024-01-15T08:15:15;20.97;;;12.40;;
4980;SDS011;2507;50.392;7.482;2024-01-15T08:17:42;24.27;;;12.97;;
4980;SDS011;2507;50.392;7.482;2024-01-15T08:20:07;23.80;;;13.07;;
4980;SDS011;2507;50.392;7.482;2024-01-15T08:22:33;22.70;;;12.67;;
4980;SDS011;2507;50.392;7.482;2024-01-15T08:24:58;21.70;;;12.27;;
4980;SDS011;2507;50.392;7.482;2024-01-15T08:27:23;25.90;;;14.73;;
4980;SDS011;2507;50.392;7.482;2024-01-15T08:29:49;25.17;;;15.07;;
4980;SDS011;2507;50.392;7.482;2024-01-15T08:32:14;22.17;;;13.80;;
4980;SDS011;2507;50.392;7.482;2024-01-15T08:34:40;29.30;;;14.53;;
4980;SDS011;2507;50.392;7.482;2024-01-15T08:37:06;26.57;;;14.67;;
4980;SDS011;2507;50.392;7.482;2024-01-15T08:39:31;28.13;;;14.43;;
4980;SDS011;2507;50.392;7.482;2024-01-15T08:41:56;23.77;;;14.83;;
4980;SDS011;2507;50.392;7.482;2024-01-15T08:44:22;26.33;;;15.90;;
4980;SDS011;2507;50.392;7.482;2024-01-15T08:46:47;24.43;;;14.93;;
4980;SDS011;2507;50.392;7.482;2024-01-15T08:49:12;24.40;;;13.80;;
4980;SDS011;2507;50.392;7.482;2024-01-15T08:51:37;22.83;;;13.30;;
4980;SDS011;2507;50.392;7.482;2024-01-15T08:54:04;25.60;;;14.40;;
4980;SDS011;2507;50.392;7.482;2024-01-15T08:56:29;25.53;;;13.97;;
4980;SDS011;2507;50.392;7.482;2024-01-15T08:58:54;19.23;;;11.20;;
4980;SDS011;2507;50.392;7.482;2024-01-15T09:01:20;24.80;;;12.60;;
4980;SDS011;2507;50.392;7.482;2024-01-15T09:03:45;20.27;;;12.67;;
4980;SDS011;2507;50.392;7.482;2024-01-15T09:06:11;20.70;;;13.30;;
4980;SDS011;2507;50.392;7.482;2024-01-15T09:08:36;21.57;;;12.60;;
4980;SDS011;2507;50.392;7.482;2024-01-15T09:11:02;16.90;;;11.00;;
4980;SDS011;2507;50.392;7.482;2024-01-15T09:13:28;17.00;;;11.07;;
4980;SDS011;2507;50.392;7.482;2024-01-15T09:15:54;14.00;;;10.80;;
4980;SDS011;2507;50.392;7.482;2024-01-15T09:18:19;15.50;;;10.50;;
4980;SDS011;2507;50.392;7.482;2024-01-15T09:20:44;18.93;;;11.40;;
4980;SDS011;2507;50.392;7.482;2024-01-15T09:23:09;16.33;;;10.73;;
4980;SDS011;2507;50.392;7.482;2024-01-15T09:25:35;15.63;;;10.50;;
4980;SDS011;2507;50.392;7.482;2024-01-15T09:28:00;19.20;;;11.67;;
4980;SDS011;2507;50.392;7.482;2024-01-15T09:30:25;17.13;;;11.40;;
4980;SDS011;2507;50.392;7.482;2024-01-15T09:32:50;15.57;;;10.13;;
4980;SDS011;2507;50.392;7.482;2024-01-15T09:35:16;16.97;;;11.57;;
4980;SDS011;2507;50.392;7.482;2024-01-15T09:37:41;16.40;;;10.97;;
4980;SDS011;2507;50.392;7.482;2024-01-15T09:40:07;15.53;;;10.87;;
4980;SDS011;2507;50.392;7.482;2024-01-15T09:42:36;16.17;;;10.93;;
4980;SDS011;2507;50.392;7.482;2024-01-15T09:45:02;18.03;;;12.00;;
4980;SDS011;2507;50.392;7.482;2024-01-15T09:47:28;18.20;;;11.60;;
4980;SDS011;2507;50.392;7.482;2024-01-15T09:49:54;19.03;;;10.83;;
4980;SDS011;2507;50.392;7.482;2024-01-15T09:52:21;15.63;;;10.63;;
4980;SDS011;2507;50.392;7.482;2024-01-15T09:54:47;13.23;;;9.93;;
4980;SDS011;2507;50.392;7.482;2024-01-15T09:57:13;18.03;;;10.57;;
4980;SDS011;2507;50.392;7.482;2024-01-15T09:59:39;15.83;;;10.40;;
4980;SDS011;2507;50.392;7.482;2024-01-15T10:02:07;14.97;;;10.40;;
4980;SDS011;2507;50.392;7.482;2024-01-15T10:04:34;13.43;;;10.07;;
4980;SDS011;2507;50.392;7.482;2024-01-15T10:07:00;17.17;;;11.33;;
4980;SDS011;2507;50.392;7.482;2024-01-15T10:09:26;13.50;;;10.20;;
4980;SDS011;2507;50.392;7.482;2024-01-15T10:11:51;17.27;;;11.73;;
4980;SDS011;2507;50.392;7.482;2024-01-15T10:14:17;13.87;;;10.37;;
4980;SDS011;2507;50.392;7.482;2024-01-15T10:16:42;12.43;;;9.60;;
4980;SDS011;2507;50.392;7.482;2024-01-15T10:19:08;14.70;;;10.83;;
4980;SDS011;2507;50.392;7.482;2024-01-15T10:21:34;15.77;;;10.67;;
4980;SDS011;2507;50.392;7.482;2024-01-15T10:24:01;17.20;;;10.83;;
4980;SDS011;2507;50.392;7.482;2024-01-15T10:26:27;16.77;;;11.23;;
4980;SDS011;2507;50.392;7.482;2024-01-15T10:28:53;15.00;;;10.00;;
4980;SDS011;2507;50.392;7.482;2024-01-15T10:31:18;14.50;;;10.83;;
4980;SDS011;2507;50.392;7.482;2024-01-15T10:33:47;14.40;;;9.80;;
4980;SDS011;2507;50.392;7.482;2024-01-15T10:36:13;19.43;;;11.33;;
4980;SDS011;2507;50.392;7.482;2024-01-15T10:38:41;15.67;;;10.37;;
4980;SDS011;2507;50.392;7.482;2024-01-15T10:41:07;17.17;;;11.43;;
4980;SDS011;2507;50.392;7.482;2024-01-15T10:43:34;15.53;;;10.47;;
4980;SDS011;2507;50.392;7.482;2024-01-15T10:45:59;14.50;;;10.87;;
4980;SDS011;2507;50.392;7.482;2024-01-15T10:48:24;18.00;;;11.03;;
4980;SDS011;2507;50.392;7.482;2024-01-15T10:50:51;13.50;;;8.90;;
4980;SDS011;2507;50.392;7.482;2024-01-15T10:53:17;12.07;;;9.30;;
4980;SDS011;2507;50.392;7.482;2024-01-15T10:55:42;9.27;;;7.40;;
4980;SDS011;2507;50.392;7.482;2024-01-15T10:58:08;9.33;;;7.73;;
4980;SDS011;2507;50.392;7.482;2024-01-15T11:00:38;11.03;;;8.63;;
4980;SDS011;2507;50.392;7.482;2024-01-15T11:03:04;9.73;;;7.97;;
4980;SDS011;2507;50.392;7.482;2024-01-15T11:05:37;8.17;;;6.70;;
4980;SDS011;2507;50.392;7.482;2024-01-15T11:08:06;11.80;;;7.77;;
4980;SDS011;2507;50.392;7.482;2024-01-15T11:13:15;10.40;;;7.87;;
4980;SDS011;2507;50.392;7.482;2024-01-15T11:18:41;11.73;;;9.17;;
4980;SDS011;2507;50.392;7.482;2024-01-15T11:23:49;10.80;;;7.70;;
4980;SDS011;2507;50.392;7.482;2024-01-15T11:28:59;12.30;;;8.23;;
4980;SDS011;2507;50.392;7.482;2024-01-15T11:34:06;10.40;;;9.10;;
4980;SDS011;2507;50.392;7.482;2024-01-15T11:42:02;9.97;;;7.60;;
4980;SDS011;2507;50.392;7.482;2024-01-15T11:44:28;10.30;;;7.33;;
4980;SDS011;2507;50.392;7.482;2024-01-15T11:47:02;10.40;;;7.47;;
4980;SDS011;2507;50.392;7.482;2024-01-15T11:52:22;9.53;;;6.93;;
4980;SDS011;2507;50.392;7.482;2024-01-15T11:57:58;6.17;;;5.47;;
4980;SDS011;2507;50.392;7.482;2024-01-15T12:00:19;8.77;;;6.30;;
4980;SDS011;2507;50.392;7.482;2024-01-15T12:02:45;7.47;;;5.20;;
4980;SDS011;2507;50.392;7.482;2024-01-15T12:05:12;6.23;;;5.37;;
4980;SDS011;2507;50.392;7.482;2024-01-15T12:07:39;9.83;;;4.90;;
4980;SDS011;2507;50.392;7.482;2024-01-15T12:10:12;8.23;;;7.00;;
4980;SDS011;2507;50.392;7.482;2024-01-15T12:15:19;6.20;;;5.13;;
4980;SDS011;2507;50.392;7.482;2024-01-15T12:17:45;5.93;;;5.30;;
4980;SDS011;2507;50.392;7.482;2024-01-15T12:20:10;5.37;;;4.87;;
4980;SDS011;2507;50.392;7.482;2024-01-15T12:22:36;4.93;;;4.43;;
4980;SDS011;2507;50.392;7.482;2024-01-15T12:25:01;7.30;;;3.80;;
4980;SDS011;2507;50.392;7.482;2024-01-15T12:27:26;3.70;;;3.40;;
4980;SDS011;2507;50.392;7.482;2024-01-15T12:29:52;3.83;;;3.53;;
4980;SDS011;2507;50.392;7.482;2024-01-15T12:32:18;6.93;;;3.80;;
4980;SDS011;2507;50.392;7.482;2024-01-15T12:34:44;3.83;;;3.50;;
4980;SDS011;2507;50.392;7.482;2024-01-15T12:37:09;3.20;;;2.90;;
4980;SDS011;2507;50.392;7.482;2024-01-15T12:39:35;3.73;;;3.50;;
4980;SDS011;2507;50.392;7.482;2024-01-15T12:42:01;3.60;;;3.30;;
4980;SDS011;2507;50.392;7.482;2024-01-15T12:44:27;5.33;;;3.90;;
4980;SDS011;2507;50.392;7.482;2024-01-15T12:46:53;8.60;;;3.40;;
4980;SDS011;2507;50.392;7.482;2024-01-15T12:49:18;4.03;;;2.80;;
4980;SDS011;2507;50.392;7.482;2024-01-15T12:51:51;5.90;;;3.53;;
4980;SDS011;2507;50.392;7.482;2024-01-15T12:54:17;3.77;;;2.57;;
4980;SDS011;2507;50.392;7.482;2024-01-15T12:56:42;5.13;;;3.40;;
4980;SDS011;2507;50.392;7.482;2024-01-15T12:59:08;3.03;;;2.83;;
4980;SDS011;2507;50.392;7.482;2024-01-15T13:01:33;3.53;;;2.80;;
4980;SDS011;2507;50.392;7.482;2024-01-15T13:04:00;3.20;;;2.80;;
4980;SDS011;2507;50.392;7.482;2024-01-15T13:06:26;2.53;;;2.33;;
4980;SDS011;2507;50.392;7.482;2024-01-15T13:08:51;7.80;;;2.87;;
4980;SDS011;2507;50.392;7.482;2024-01-15T13:11:16;4.50;;;2.77;;
4980;SDS011;2507;50.392;7.482;2024-01-15T13:13:42;4.13;;;2.70;;
4980;SDS011;2507;50.392;7.482;2024-01-15T13:16:08;4.03;;;2.67;;
4980;SDS011;2507;50.392;7.482;2024-01-15T13:18:34;2.20;;;2.00;;
4980;SDS011;2507;50.392;7.482;2024-01-15T13:20:59;7.53;;;2.33;;
4980;SDS011;2507;50.392;7.482;2024-01-15T13:23:25;6.80;;;2.03;;
4980;SDS011;2507;50.392;7.482;2024-01-15T13:25:50;6.20;;;2.10;;
4980;SDS011;2507;50.392;7.482;2024-01-15T13:28:15;6.23;;;2.53;;
4980;SDS011;2507;50.392;7.482;2024-01-15T13:30:41;8.07;;;2.20;;
4980;SDS011;2507;50.392;7.482;2024-01-15T13:33:07;3.73;;;2.40;;
4980;SDS011;2507;50.392;7.482;2024-01-15T13:35:33;2.67;;;1.73;;
4980;SDS011;2507;50.392;7.482;2024-01-15T13:38:00;2.73;;;2.00;;
4980;SDS011;2507;50.392;7.482;2024-01-15T13:40:26;2.53;;;2.30;;
4980;SDS011;2507;50.392;7.482;2024-01-15T13:42:51;4.57;;;2.00;;
4980;SDS011;2507;50.392;7.482;2024-01-15T13:45:17;2.00;;;1.90;;
4980;SDS011;2507;50.392;7.482;2024-01-15T13:47:42;3.77;;;1.83;;
4980;SDS011;2507;50.392;7.482;2024-01-15T13:50:10;6.07;;;1.80;;
4980;SDS011;2507;50.392;7.482;2024-01-15T13:52:36;1.87;;;1.60;;
4980;SDS011;2507;50.392;7.482;2024-01-15T13:55:01;2.27;;;2.07;;
4980;SDS011;2507;50.392;7.482;2024-01-15T13:57:26;4.53;;;2.30;;
4980;SDS011;2507;50.392;7.482;2024-01-15T13:59:53;3.23;;;2.13;;
4980;SDS011;2507;50.392;7.482;2024-01-15T14:02:18;6.83;;;2.20;;
4980;SDS011;2507;50.392;7.482;2024-01-15T14:04:45;5.43;;;2.10;;
4980;SDS011;2507;50.392;7.482;2024-01-15T14:07:10;1.60;;;1.47;;
4980;SDS011;2507;50.392;7.482;2024-01-15T14:09:35;5.90;;;1.43;;
4980;SDS011;2507;50.392;7.482;2024-01-15T14:12:02;4.03;;;1.57;;
4980;SDS011;2507;50.392;7.482;2024-01-15T14:14:27;2.10;;;1.90;;
4980;SDS011;2507;50.392;7.482;2024-01-15T14:16:53;1.90;;;1.70;;
4980;SDS011;2507;50.392;7.482;2024-01-15T14:19:18;4.13;;;2.50;;
4980;SDS011;2507;50.392;7.482;2024-01-15T14:21:43;8.93;;;4.33;;
4980;SDS011;2507;50.392;7.482;2024-01-15T14:24:09;7.73;;;2.60;;
4980;SDS011;2507;50.392;7.482;2024-01-15T14:26:34;2.70;;;2.00;;
4980;SDS011;2507;50.392;7.482;2024-01-15T14:28:59;9.23;;;2.97;;
4980;SDS011;2507;50.392;7.482;2024-01-15T14:31:24;5.00;;;2.97;;
4980;SDS011;2507;50.392;7.482;2024-01-15T14:33:51;15.03;;;5.50;;
4980;SDS011;2507;50.392;7.482;2024-01-15T14:36:17;12.30;;;5.60;;
4980;SDS011;2507;50.392;7.482;2024-01-15T14:38:42;4.50;;;2.60;;
4980;SDS011;2507;50.392;7.482;2024-01-15T14:41:07;3.67;;;2.03;;
4980;SDS011;2507;50.392;7.482;2024-01-15T14:43:33;6.90;;;3.63;;
4980;SDS011;2507;50.392;7.482;2024-01-15T14:45:58;3.73;;;3.07;;
4980;SDS011;2507;50.392;7.482;2024-01-15T14:48:23;4.60;;;2.83;;
4980;SDS011;2507;50.392;7.482;2024-01-15T14:50:48;3.00;;;2.20;;
4980;SDS011;2507;50.392;7.482;2024-01-15T14:53:15;4.87;;;2.27;;
4980;SDS011;2507;50.392;7.482;2024-01-15T14:55:42;6.13;;;3.60;;
4980;SDS011;2507;50.392;7.482;2024-01-15T14:58:07;2.53;;;1.93;;
4980;SDS011;2507;50.392;7.482;2024-01-15T15:00:32;2.83;;;1.80;;
4980;SDS011;2507;50.392;7.482;2024-01-15T15:02:58;2.90;;;1.83;;
4980;SDS011;2507;50.392;7.482;2024-01-15T15:05:24;1.70;;;1.57;;
4980;SDS011;2507;50.392;7.482;2024-01-15T15:07:50;2.40;;;2.20;;
4980;SDS011;2507;50.392;7.482;2024-01-15T15:10:15;2.13;;;2.03;;
4980;SDS011;2507;50.392;7.482;2024-01-15T15:12:41;1.90;;;1.80;;
4980;SDS011;2507;50.392;7.482;2024-01-15T15:15:06;5.00;;;3.10;;